Time;durP1;ratioP1;P1;durP2;ratioP2;P2;SDS_P1;SDS_P2;PMS_P1;PMS_P2;Temp;Humidity;BMP_temperature;BMP_pressure;BME280_temperature;BME280_humidity;BME280_pressure;Samples;Min_cycle;Max_cycle;Signal;HPM_P1;HPM_P2
2023/04/02 00:00:33;;;;;;;7.82;3.15;;;4.30;99.90;;;;;;4986915;28;20514;-77
2023/04/02 00:03:02;;;;;;;8.55;3.00;;;4.20;99.90;;;;;;4987727;28;20820;-74
2023/04/02 00:05:49;;;;;;;9.13;3.38;;;4.20;99.90;;;;;;4982976;28;20434;-75
2023/04/02 00:08:22;;;;;;;7.53;3.58;;;4.20;99.90;;;;;;4988219;28;20426;-75
2023/04/02 00:10:56;;;;;;;9.90;3.97;;;4.10;99.90;;;;;;4988370;28;20466;-75
2023/04/02 00:13:33;;;;;;;10.13;3.38;;;4.10;99.90;;;;;;4987415;28;20438;-73
2023/04/02 00:15:59;;;;;;;9.43;3.75;;;4.00;99.90;;;;;;4992217;28;20421;-74
2023/04/02 00:18:26;;;;;;;7.15;3.03;;;4.10;99.90;;;;;;4986730;28;20434;-74
2023/04/02 00:21:00;;;;;;;9.40;2.95;;;4.00;99.90;;;;;;4983938;28;20454;-75
2023/04/02 00:23:27;;;;;;;8.48;3.60;;;4.10;99.90;;;;;;4981866;28;21427;-74
2023/04/02 00:25:52;;;;;;;7.63;2.95;;;4.10;99.90;;;;;;4989714;28;20422;-75
2023/04/02 00:28:21;;;;;;;6.95;3.53;;;4.10;99.90;;;;;;4994576;28;20506;-75
2023/04/02 00:30:58;;;;;;;8.73;3.95;;;4.10;99.90;;;;;;4989588;28;20430;-75
2023/04/02 00:33:27;;;;;;;8.68;3.80;;;4.10;99.90;;;;;;4969149;28;20425;-75
2023/04/02 00:35:54;;;;;;;11.80;3.47;;;4.00;99.90;;;;;;4970955;28;20762;-75
2023/04/02 00:38:25;;;;;;;5.60;3.00;;;4.00;99.90;;;;;;4997092;28;20469;-76
2023/04/02 00:40:53;;;;;;;8.55;3.35;;;4.00;99.90;;;;;;4984977;28;20805;-75
2023/04/02 00:43:19;;;;;;;6.75;3.30;;;4.00;99.90;;;;;;4988396;28;20430;-76
2023/04/02 00:45:51;;;;;;;5.60;3.30;;;3.90;99.90;;;;;;4987941;28;20438;-75
2023/04/02 00:48:41;;;;;;;7.80;3.15;;;3.90;99.90;;;;;;4983922;28;20424;-75
2023/04/02 00:51:13;;;;;;;4.88;2.97;;;3.80;99.90;;;;;;4984221;28;20426;-75
2023/04/02 00:53:41;;;;;;;6.93;3.30;;;3.80;99.90;;;;;;4988049;28;20434;-73
2023/04/02 00:56:18;;;;;;;8.68;3.75;;;3.80;99.90;;;;;;4988024;28;20833;-75
2023/04/02 00:58:49;;;;;;;6.65;3.20;;;3.70;99.90;;;;;;4990496;28;20504;-75
2023/04/02 01:01:18;;;;;;;6.57;2.80;;;3.50;99.90;;;;;;4987538;28;20505;-75
2023/04/02 01:04:00;;;;;;;8.07;3.17;;;3.40;99.90;;;;;;4969836;28;20442;-74
2023/04/02 01:06:29;;;;;;;6.53;2.83;;;3.40;99.90;;;;;;4969986;28;20483;-74
2023/04/02 01:09:14;;;;;;;7.88;2.97;;;3.20;99.90;;;;;;4983230;28;20437;-74
2023/04/02 01:12:13;;;;;;;8.02;2.97;;;3.10;99.90;;;;;;4978312;28;20975;-76
2023/04/02 01:14:44;;;;;;;8.40;3.53;;;3.10;99.90;;;;;;4993375;28;20424;-75
2023/04/02 01:17:17;;;;;;;8.23;3.23;;;3.00;99.90;;;;;;4983022;28;20449;-75
2023/04/02 01:20:06;;;;;;;6.32;2.55;;;3.00;99.90;;;;;;4980879;28;20422;-75
2023/04/02 01:22:51;;;;;;;7.57;2.80;;;2.90;99.90;;;;;;4984422;28;20473;-76
2023/04/02 01:25:43;;;;;;;8.02;3.20;;;2.80;99.90;;;;;;4984906;28;20850;-74
2023/04/02 01:28:13;;;;;;;11.70;4.45;;;2.80;99.90;;;;;;4984709;28;20477;-76
2023/04/02 01:30:42;;;;;;;7.83;3.40;;;2.70;99.90;;;;;;4988493;28;20547;-76
2023/04/02 01:33:10;;;;;;;7.88;3.42;;;2.70;99.90;;;;;;4987120;28;20434;-75
2023/04/02 01:35:40;;;;;;;6.47;3.13;;;2.60;99.90;;;;;;4988031;28;20785;-76
2023/04/02 01:38:18;;;;;;;6.28;3.03;;;2.60;99.90;;;;;;4983914;28;20414;-78
2023/04/02 01:40:46;;;;;;;5.03;2.72;;;2.60;99.90;;;;;;4983998;28;20422;-76
2023/04/02 01:43:32;;;;;;;6.22;3.47;;;2.50;99.90;;;;;;4991685;28;20471;-74
2023/04/02 01:46:02;;;;;;;8.05;3.08;;;2.50;99.90;;;;;;4985724;28;20418;-76
2023/04/02 01:48:29;;;;;;;6.63;3.00;;;2.60;99.90;;;;;;4984668;28;20430;-75
2023/04/02 01:50:58;;;;;;;5.88;3.35;;;2.50;99.90;;;;;;4987016;28;20513;-75
2023/04/02 01:53:26;;;;;;;7.60;3.10;;;2.40;99.90;;;;;;4991413;28;20447;-74
2023/04/02 01:56:00;;;;;;;6.50;3.00;;;2.40;99.90;;;;;;4988964;28;20500;-75
2023/04/02 01:58:30;;;;;;;7.38;3.50;;;2.50;99.90;;;;;;4984849;28;20465;-75
2023/04/02 02:01:18;;;;;;;8.50;3.05;;;2.40;99.90;;;;;;4984254;28;20425;-75
2023/04/02 02:03:44;;;;;;;8.40;3.10;;;2.30;99.90;;;;;;4994780;28;20802;-76
2023/04/02 02:06:15;;;;;;;6.82;2.88;;;2.30;99.90;;;;;;4989356;28;20464;-74
2023/04/02 02:08:53;;;;;;;7.68;3.17;;;2.20;99.90;;;;;;4995965;28;20767;-74
2023/04/02 02:11:22;;;;;;;8.30;3.08;;;2.20;99.90;;;;;;4989023;28;20437;-75
2023/04/02 02:13:57;;;;;;;6.13;2.67;;;2.20;99.90;;;;;;4989321;28;20943;-75
2023/04/02 02:16:26;;;;;;;8.27;2.95;;;2.20;99.90;;;;;;4992057;28;20456;-75
2023/04/02 02:18:54;;;;;;;5.85;3.10;;;2.10;99.90;;;;;;4996522;28;20510;-75
2023/04/02 02:21:37;;;;;;;5.17;2.20;;;2.10;99.90;;;;;;4974256;28;20758;-77
2023/04/02 02:24:05;;;;;;;8.20;2.97;;;2.10;99.90;;;;;;4986812;28;21032;-74
2023/04/02 02:26:34;;;;;;;4.60;2.13;;;2.00;99.90;;;;;;4990913;28;20501;-75
2023/04/02 02:29:05;;;;;;;7.77;2.57;;;2.00;99.90;;;;;;4983458;28;20599;-75
2023/04/02 02:31:33;;;;;;;7.55;2.25;;;2.00;99.90;;;;;;4992397;28;20468;-74
2023/04/02 02:34:17;;;;;;;6.32;2.33;;;2.00;99.90;;;;;;4988370;28;20929;-74
2023/04/02 02:36:50;;;;;;;5.93;2.70;;;2.00;99.90;;;;;;5002372;28;20441;-75
2023/04/02 02:39:48;;;;;;;8.75;2.60;;;1.90;99.90;;;;;;4989779;28;20515;-74
2023/04/02 02:42:27;;;;;;;5.88;2.75;;;1.90;99.90;;;;;;4985028;28;20456;-76
2023/04/02 02:44:55;;;;;;;4.57;2.40;;;1.90;99.90;;;;;;4993838;28;20604;-75
2023/04/02 02:47:29;;;;;;;4.95;1.90;;;1.80;99.90;;;;;;4989283;28;20536;-75
2023/04/02 02:49:58;;;;;;;10.80;3.67;;;1.80;99.90;;;;;;4991343;28;20430;-75
2023/04/02 02:52:31;;;;;;;6.70;2.53;;;1.80;99.90;;;;;;4984891;28;20917;-75
2023/04/02 02:55:03;;;;;;;3.85;1.77;;;1.80;99.90;;;;;;4987046;28;20437;-77
2023/04/02 02:57:34;;;;;;;7.75;2.80;;;1.80;99.90;;;;;;4996828;28;20435;-75
2023/04/02 03:00:01;;;;;;;4.88;1.80;;;1.70;99.90;;;;;;4990038;28;20785;-76
2023/04/02 03:02:27;;;;;;;7.30;1.95;;;1.60;99.90;;;;;;4990748;28;20439;-75
2023/04/02 03:04:54;;;;;;;5.53;2.00;;;1.70;99.90;;;;;;4993005;28;20785;-75
2023/04/02 03:07:25;;;;;;;4.72;2.10;;;1.70;99.90;;;;;;4990962;28;20797;-74
2023/04/02 03:10:16;;;;;;;5.88;1.73;;;1.70;99.90;;;;;;4990602;28;20426;-75
2023/04/02 03:13:13;;;;;;;5.00;1.75;;;1.70;99.90;;;;;;4981590;28;20569;-75
2023/04/02 03:15:48;;;;;;;5.72;1.80;;;1.60;99.90;;;;;;4986692;28;20435;-75
2023/04/02 03:18:39;;;;;;;4.63;1.63;;;1.70;99.90;;;;;;4986253;28;20430;-76
2023/04/02 03:21:16;;;;;;;5.45;1.80;;;1.70;99.90;;;;;;4991258;28;20430;-77
2023/04/02 03:23:46;;;;;;;5.15;1.67;;;1.60;99.90;;;;;;4991533;28;21118;-76
2023/04/02 03:26:21;;;;;;;4.57;2.03;;;1.70;99.90;;;;;;4988579;28;20419;-75
2023/04/02 03:29:06;;;;;;;4.97;1.67;;;1.50;99.90;;;;;;4988106;28;20430;-77
2023/04/02 03:31:36;;;;;;;6.25;1.92;;;1.60;99.90;;;;;;4982886;28;20418;-75
2023/04/02 03:34:19;;;;;;;4.65;1.40;;;1.50;99.90;;;;;;4985226;28;20448;-75
2023/04/02 03:37:01;;;;;;;3.20;1.27;;;1.50;99.90;;;;;;4969517;28;20480;-76
2023/04/02 03:39:38;;;;;;;4.72;1.20;;;1.40;99.90;;;;;;4992414;28;20793;-75
2023/04/02 03:42:16;;;;;;;5.82;1.67;;;1.40;99.90;;;;;;4970101;28;20468;-75
2023/04/02 03:45:20;;;;;;;5.07;1.58;;;1.30;99.90;;;;;;4990259;28;20422;-75
2023/04/02 03:48:02;;;;;;;5.05;1.73;;;1.40;99.90;;;;;;4988352;28;20961;-75
2023/04/02 03:50:36;;;;;;;5.50;1.70;;;1.40;99.90;;;;;;4992682;28;20446;-75
2023/04/02 03:53:04;;;;;;;7.93;1.75;;;1.30;99.90;;;;;;4987040;28;20807;-76
2023/04/02 03:55:32;;;;;;;7.45;1.85;;;1.30;99.90;;;;;;4992963;28;20436;-75
2023/04/02 03:58:18;;;;;;;7.43;2.10;;;1.30;99.90;;;;;;4990179;28;20919;-75
2023/04/02 04:00:49;;;;;;;4.30;1.50;;;1.30;99.90;;;;;;4978983;28;20449;-76
2023/04/02 04:03:23;;;;;;;5.18;2.22;;;1.40;99.90;;;;;;4990252;28;20544;-77
2023/04/02 04:06:06;;;;;;;6.13;1.98;;;1.30;99.90;;;;;;4991593;28;20418;-75
2023/04/02 04:08:49;;;;;;;4.22;1.50;;;1.40;99.90;;;;;;4968024;28;20825;-75
2023/04/02 04:11:25;;;;;;;4.20;1.80;;;1.40;99.90;;;;;;4998404;28;20981;-76
2023/04/02 04:14:04;;;;;;;6.18;2.28;;;1.40;99.90;;;;;;4984003;28;20414;-78
2023/04/02 04:16:46;;;;;;;5.43;2.40;;;1.30;99.90;;;;;;4983395;28;20445;-75
2023/04/02 04:19:18;;;;;;;7.00;1.63;;;1.30;99.90;;;;;;4980669;28;20425;-76
2023/04/02 04:21:45;;;;;;;4.72;1.70;;;1.20;99.90;;;;;;4983403;28;20936;-74
2023/04/02 04:24:21;;;;;;;7.43;2.15;;;1.30;99.90;;;;;;4982776;28;20957;-76
2023/04/02 04:27:08;;;;;;;6.50;2.22;;;1.40;99.90;;;;;;4987111;28;20418;-75
2023/04/02 04:30:04;;;;;;;7.95;2.08;;;1.30;99.90;;;;;;4980211;28;20438;-74
2023/04/02 04:32:34;;;;;;;4.90;1.70;;;1.20;99.90;;;;;;4985221;28;20949;-78
2023/04/02 04:35:23;;;;;;;6.10;1.60;;;1.20;99.90;;;;;;4993606;28;20418;-76
2023/04/02 04:37:57;;;;;;;9.30;1.60;;;1.20;99.90;;;;;;4978355;28;20450;-76
2023/04/02 04:40:27;;;;;;;9.93;2.25;;;1.20;99.90;;;;;;4991071;28;20953;-75
2023/04/02 04:42:58;;;;;;;4.53;1.50;;;1.20;99.90;;;;;;5007113;28;20432;-76
2023/04/02 04:45:50;;;;;;;6.97;2.00;;;1.20;99.90;;;;;;4970515;28;20555;-74
2023/04/02 04:48:55;;;;;;;7.93;2.10;;;1.20;99.90;;;;;;4987640;28;20503;-74
2023/04/02 04:51:29;;;;;;;9.50;2.92;;;1.20;99.90;;;;;;4986519;28;20426;-77
2023/04/02 04:53:55;;;;;;;7.13;1.88;;;1.20;99.90;;;;;;4984804;28;20433;-75
2023/04/02 04:56:25;;;;;;;7.40;1.57;;;1.20;99.90;;;;;;4987241;28;20423;-76
2023/04/02 04:59:26;;;;;;;4.25;1.40;;;1.10;99.90;;;;;;4997765;28;20463;-76
2023/04/02 05:01:56;;;;;;;6.07;1.80;;;1.20;99.90;;;;;;4970988;28;20956;-75
2023/04/02 05:04:39;;;;;;;6.38;1.77;;;1.10;99.90;;;;;;4991722;28;20872;-75
2023/04/02 05:07:14;;;;;;;7.50;2.25;;;1.10;99.90;;;;;;4987300;28;20452;-76
2023/04/02 05:10:12;;;;;;;4.15;1.65;;;1.10;99.90;;;;;;4992907;28;20424;-76
2023/04/02 05:13:06;;;;;;;6.70;1.77;;;1.00;99.90;;;;;;4981176;28;20451;-76
2023/04/02 05:15:38;;;;;;;6.03;1.60;;;1.20;99.90;;;;;;4970200;28;20935;-76
2023/04/02 05:18:35;;;;;;;5.10;2.25;;;1.20;99.90;;;;;;4969774;28;20416;-76
2023/04/02 05:21:22;;;;;;;5.05;1.13;;;1.20;99.90;;;;;;4986874;28;20558;-75
2023/04/02 05:24:12;;;;;;;6.78;1.70;;;1.20;99.90;;;;;;4975697;28;20434;-75
2023/04/02 05:26:44;;;;;;;4.35;1.80;;;1.20;99.90;;;;;;4989082;28;20414;-74
2023/04/02 05:29:24;;;;;;;7.20;1.58;;;1.30;99.90;;;;;;4996229;28;20442;-78
2023/04/02 05:32:16;;;;;;;6.90;1.57;;;1.60;99.90;;;;;;4992585;28;20492;-76
2023/04/02 05:34:48;;;;;;;4.25;1.35;;;1.50;99.90;;;;;;4985762;28;20517;-75
2023/04/02 05:37:20;;;;;;;4.57;2.00;;;2.10;99.90;;;;;;4977054;28;20427;-76
2023/04/02 05:39:53;;;;;;;6.28;1.35;;;1.80;99.90;;;;;;4987538;28;20441;-76
2023/04/02 05:42:27;;;;;;;3.13;1.30;;;1.60;99.90;;;;;;4986166;28;20430;-75
2023/04/02 05:45:21;;;;;;;6.72;1.55;;;2.10;99.90;;;;;;4984632;28;20473;-75
2023/04/02 05:47:50;;;;;;;3.97;1.38;;;1.80;99.90;;;;;;4989560;28;20429;-76
2023/04/02 05:50:24;;;;;;;8.60;1.60;;;2.10;99.90;;;;;;4984684;28;20521;-74
2023/04/02 05:52:56;;;;;;;6.57;2.05;;;2.00;99.90;;;;;;4984265;28;20464;-75
2023/04/02 05:55:34;;;;;;;5.38;1.48;;;1.90;99.90;;;;;;4983184;28;20466;-76
2023/04/02 05:58:27;;;;;;;5.22;1.50;;;1.80;99.90;;;;;;4985299;28;20438;-76
2023/04/02 06:00:58;;;;;;;4.45;1.17;;;2.00;99.90;;;;;;4986171;28;20422;-75
2023/04/02 06:03:50;;;;;;;7.22;2.10;;;2.10;99.90;;;;;;4985501;28;20434;-74
2023/04/02 06:06:40;;;;;;;4.88;1.10;;;2.00;99.90;;;;;;4982491;28;20438;-75
2023/04/02 06:09:35;;;;;;;4.93;1.30;;;2.50;99.90;;;;;;4972173;28;20478;-76
2023/04/02 06:12:09;;;;;;;6.63;1.17;;;2.60;99.90;;;;;;4992028;28;20941;-75
2023/04/02 06:14:36;;;;;;;5.68;1.30;;;2.40;99.90;;;;;;4980627;28;20437;-77
2023/04/02 06:17:03;;;;;;;9.02;2.25;;;2.20;99.90;;;;;;4983269;28;20432;-74
2023/04/02 06:19:33;;;;;;;6.82;1.52;;;2.20;99.90;;;;;;4972541;28;20505;-77
2023/04/02 06:22:17;;;;;;;5.35;1.70;;;2.40;99.90;;;;;;4981454;28;20549;-75
2023/04/02 06:24:45;;;;;;;7.05;1.40;;;2.60;99.90;;;;;;4979121;28;20505;-78
2023/04/02 06:27:18;;;;;;;4.22;1.35;;;2.60;99.90;;;;;;4979814;28;20436;-75
2023/04/02 06:29:46;;;;;;;6.05;1.27;;;2.70;99.90;;;;;;4984495;28;20433;-75
2023/04/02 06:32:12;;;;;;;5.80;1.63;;;2.80;99.90;;;;;;4977606;28;20446;-77
2023/04/02 06:34:40;;;;;;;5.80;2.00;;;3.00;99.90;;;;;;4982630;28;20457;-75
2023/04/02 06:37:16;;;;;;;8.45;2.40;;;2.80;99.90;;;;;;4981170;28;20424;-77
2023/04/02 06:39:41;;;;;;;6.53;1.40;;;2.80;99.90;;;;;;4971635;28;20435;-73
2023/04/02 06:42:15;;;;;;;5.30;2.00;;;2.80;99.90;;;;;;4991502;28;20431;-74
2023/04/02 06:44:41;;;;;;;9.00;1.45;;;2.80;99.90;;;;;;4994242;28;20479;-74
2023/04/02 06:47:28;;;;;;;6.72;1.88;;;3.00;99.90;;;;;;5008831;28;20420;-76
2023/04/02 06:50:15;;;;;;;6.82;1.20;;;3.40;99.90;;;;;;4995816;28;20468;-75
2023/04/02 06:52:50;;;;;;;5.70;1.38;;;3.40;99.90;;;;;;4988690;28;20432;-78
2023/04/02 06:55:40;;;;;;;4.82;1.10;;;3.40;99.90;;;;;;4988680;28;20430;-76
2023/04/02 06:58:07;;;;;;;4.38;1.77;;;3.20;99.90;;;;;;4988732;28;20911;-77
2023/04/02 07:00:42;;;;;;;7.37;1.47;;;3.10;99.90;;;;;;4993200;28;20488;-78
2023/04/02 07:03:32;;;;;;;3.00;1.20;;;3.30;99.90;;;;;;4989557;28;20434;-76
2023/04/02 07:06:01;;;;;;;6.88;1.75;;;3.20;99.90;;;;;;5000161;28;20428;-77
2023/04/02 07:08:26;;;;;;;6.93;1.48;;;3.20;99.90;;;;;;5003648;28;20660;-76
2023/04/02 07:10:52;;;;;;;5.10;1.37;;;3.30;99.90;;;;;;4979636;28;20513;-77
2023/04/02 07:13:20;;;;;;;7.20;1.70;;;3.40;99.90;;;;;;4983403;28;20608;-78
2023/04/02 07:15:51;;;;;;;7.47;2.28;;;3.40;99.90;;;;;;5002067;28;20423;-73
2023/04/02 07:18:30;;;;;;;4.90;2.10;;;3.40;99.90;;;;;;4995469;28;20891;-74
2023/04/02 07:20:56;;;;;;;6.05;1.70;;;3.50;99.90;;;;;;4994935;28;20789;-76
2023/04/02 07:23:22;;;;;;;5.00;1.60;;;3.50;99.90;;;;;;4987742;28;20438;-76
2023/04/02 07:25:49;;;;;;;5.53;1.08;;;3.40;99.90;;;;;;4994538;28;20453;-73
2023/04/02 07:28:15;;;;;;;4.45;1.13;;;3.50;99.90;;;;;;4988428;28;20430;-77
2023/04/02 07:30:42;;;;;;;7.55;1.92;;;3.50;99.90;;;;;;4997893;28;20824;-74
2023/04/02 07:33:16;;;;;;;5.20;1.20;;;3.60;99.90;;;;;;4998839;28;20431;-78
2023/04/02 07:35:42;;;;;;;8.15;1.65;;;3.70;99.90;;;;;;4993894;28;20437;-76
2023/04/02 07:38:09;;;;;;;4.63;1.67;;;3.70;99.90;;;;;;4974312;28;20495;-75
2023/04/02 07:40:34;;;;;;;4.10;1.40;;;3.60;99.90;;;;;;4979941;28;20416;-77
2023/04/02 07:43:00;;;;;;;3.67;1.13;;;3.50;99.90;;;;;;4992739;28;20438;-76
2023/04/02 07:45:26;;;;;;;4.22;1.05;;;3.90;99.90;;;;;;5003980;28;20420;-73
2023/04/02 07:47:52;;;;;;;3.63;1.30;;;3.90;99.90;;;;;;4997052;28;20842;-76
2023/04/02 07:50:18;;;;;;;5.43;1.48;;;4.10;99.90;;;;;;4985420;28;20733;-74
2023/04/02 07:52:45;;;;;;;4.33;1.37;;;4.20;99.90;;;;;;4992103;28;20598;-76
2023/04/02 07:55:13;;;;;;;4.85;1.55;;;3.90;99.90;;;;;;4989375;28;20485;-77
2023/04/02 07:57:50;;;;;;;5.28;1.40;;;4.00;99.90;;;;;;4991572;28;20453;-78
2023/04/02 08:00:16;;;;;;;5.20;1.30;;;3.90;99.90;;;;;;4989956;28;20450;-75
2023/04/02 08:02:42;;;;;;;4.95;1.20;;;4.30;99.90;;;;;;4989835;28;20480;-74
2023/04/02 08:05:09;;;;;;;4.70;1.50;;;4.40;99.90;;;;;;4971376;28;20418;-75
2023/04/02 08:07:35;;;;;;;4.68;1.10;;;4.40;99.90;;;;;;4999982;28;20546;-73
2023/04/02 08:10:02;;;;;;;4.57;1.10;;;4.70;99.90;;;;;;4984953;28;20956;-75
2023/04/02 08:12:28;;;;;;;4.10;1.40;;;4.60;99.90;;;;;;4988595;28;20431;-75
2023/04/02 08:14:54;;;;;;;4.33;1.53;;;4.20;99.90;;;;;;4989010;28;20418;-76
2023/04/02 08:17:21;;;;;;;3.58;1.30;;;4.40;99.90;;;;;;4983241;28;20428;-75
2023/04/02 08:19:46;;;;;;;5.30;0.90;;;4.50;99.90;;;;;;4983907;28;20426;-77
2023/04/02 08:22:12;;;;;;;4.67;1.40;;;4.40;99.90;;;;;;4983792;28;20438;-76
2023/04/02 08:24:38;;;;;;;4.63;1.42;;;4.70;99.90;;;;;;4985955;28;20426;-75
2023/04/02 08:27:04;;;;;;;3.25;1.30;;;4.50;99.90;;;;;;5003818;28;20425;-78
2023/04/02 08:29:31;;;;;;;4.00;1.10;;;4.60;99.90;;;;;;4992603;28;20516;-75
2023/04/02 08:31:58;;;;;;;6.00;1.60;;;4.70;99.90;;;;;;4988865;28;20422;-76
2023/04/02 08:34:24;;;;;;;3.72;1.23;;;4.50;99.90;;;;;;4987776;28;20933;-76
2023/04/02 08:36:50;;;;;;;6.05;1.33;;;4.50;99.90;;;;;;4986681;28;20502;-74
2023/04/02 08:39:15;;;;;;;3.75;1.33;;;4.30;99.90;;;;;;4985358;28;20442;-76
2023/04/02 08:42:06;;;;;;;4.05;1.25;;;4.30;99.90;;;;;;4989191;28;20424;-74
2023/04/02 08:44:44;;;;;;;6.80;1.75;;;4.00;99.90;;;;;;4988289;28;20905;-78
2023/04/02 08:47:13;;;;;;;3.70;1.25;;;4.40;99.90;;;;;;4971519;28;20418;-75
2023/04/02 08:49:59;;;;;;;3.75;1.38;;;4.60;99.90;;;;;;4987304;28;20808;-75
2023/04/02 08:52:31;;;;;;;5.90;1.40;;;5.00;99.90;;;;;;4988325;28;20967;-74
2023/04/02 08:54:59;;;;;;;7.47;1.75;;;4.90;99.90;;;;;;4982307;28;20425;-76
2023/04/02 08:57:49;;;;;;;4.05;1.10;;;5.00;99.90;;;;;;4987326;28;20422;-75
2023/04/02 09:00:42;;;;;;;5.88;1.95;;;4.60;99.90;;;;;;4951964;28;20534;-77
2023/04/02 09:03:17;;;;;;;2.55;1.20;;;4.80;99.90;;;;;;4984367;28;20893;-75
2023/04/02 09:05:45;;;;;;;3.78;1.30;;;5.10;99.90;;;;;;4986154;28;20581;-76
2023/04/02 09:08:23;;;;;;;3.30;1.13;;;5.20;99.90;;;;;;4988573;28;20425;-77
2023/04/02 09:11:11;;;;;;;3.57;1.37;;;5.40;99.90;;;;;;5001418;28;20418;-78
2023/04/02 09:13:43;;;;;;;7.18;2.20;;;5.50;99.90;;;;;;4988459;28;20516;-79
2023/04/02 09:16:11;;;;;;;4.97;1.42;;;5.30;99.90;;;;;;4989872;28;20424;-77
2023/04/02 09:18:38;;;;;;;4.68;1.38;;;5.80;99.90;;;;;;4989766;28;20918;-78
2023/04/02 09:21:31;;;;;;;3.90;1.13;;;5.50;99.90;;;;;;4985951;28;20785;-77
2023/04/02 09:23:57;;;;;;;6.20;2.30;;;5.40;99.90;;;;;;4999115;28;20440;-78
2023/04/02 09:26:29;;;;;;;4.97;1.50;;;5.80;99.90;;;;;;4990088;28;20441;-77
2023/04/02 09:29:24;;;;;;;3.58;1.10;;;5.50;99.90;;;;;;4984078;28;20438;-78
2023/04/02 09:32:00;;;;;;;4.22;1.42;;;5.70;99.90;;;;;;4987147;28;20426;-78
2023/04/02 09:34:31;;;;;;;3.22;1.25;;;5.60;99.90;;;;;;5000081;28;20430;-77
2023/04/02 09:37:15;;;;;;;4.65;1.30;;;5.60;99.90;;;;;;4966938;28;20431;-80
2023/04/02 09:39:40;;;;;;;4.28;1.73;;;5.50;99.90;;;;;;4983266;28;20441;-78
2023/04/02 09:42:28;;;;;;;6.90;1.25;;;6.00;99.90;;;;;;4999800;28;20425;-78
2023/04/02 09:45:18;;;;;;;3.38;0.80;;;5.90;99.90;;;;;;5002784;28;20528;-77
2023/04/02 09:47:44;;;;;;;4.25;1.10;;;6.00;99.90;;;;;;4968180;28;20431;-77
2023/04/02 09:50:20;;;;;;;5.70;1.52;;;6.10;99.90;;;;;;4969142;28;20799;-78
2023/04/02 09:52:46;;;;;;;2.97;1.10;;;6.20;99.90;;;;;;5003531;28;20408;-77
2023/04/02 09:55:26;;;;;;;4.15;1.33;;;6.40;99.90;;;;;;4991684;28;20950;-79
2023/04/02 09:58:13;;;;;;;5.25;1.15;;;6.40;99.90;;;;;;4995554;28;20441;-80
2023/04/02 10:00:47;;;;;;;3.17;1.60;;;6.30;99.90;;;;;;4969072;28;20440;-78
2023/04/02 10:03:27;;;;;;;3.35;0.95;;;6.50;99.90;;;;;;4979692;28;20436;-77
2023/04/02 10:06:12;;;;;;;4.60;1.20;;;6.50;99.90;;;;;;4983438;28;20420;-77
2023/04/02 10:08:40;;;;;;;3.50;1.10;;;6.50;99.90;;;;;;4978247;28;20497;-77
2023/04/02 10:11:17;;;;;;;3.42;1.08;;;6.30;99.90;;;;;;4981163;28;20868;-78
2023/04/02 10:13:57;;;;;;;4.00;1.08;;;6.70;99.90;;;;;;4999687;28;21154;-78
2023/04/02 10:16:33;;;;;;;4.32;1.08;;;6.90;99.90;;;;;;4998681;28;20484;-80
2023/04/02 10:19:21;;;;;;;3.63;0.90;;;6.70;99.90;;;;;;4995686;28;20452;-78
2023/04/02 10:21:49;;;;;;;2.55;0.90;;;6.70;99.90;;;;;;5001943;28;20924;-77
2023/04/02 10:24:16;;;;;;;3.45;0.90;;;6.70;99.90;;;;;;5006414;28;20417;-78
2023/04/02 10:26:44;;;;;;;5.25;1.80;;;6.80;99.90;;;;;;4994376;28;20424;-77
2023/04/02 10:29:24;;;;;;;3.53;1.10;;;6.70;99.90;;;;;;5000119;28;20442;-78
2023/04/02 10:31:53;;;;;;;1.42;0.70;;;6.80;99.90;;;;;;4993790;28;20487;-79
2023/04/02 10:34:33;;;;;;;5.22;0.88;;;6.90;99.90;;;;;;4991627;28;20517;-81
2023/04/02 10:37:10;;;;;;;4.70;0.90;;;6.90;99.90;;;;;;4982612;28;20436;-77
2023/04/02 10:39:52;;;;;;;2.17;0.73;;;7.00;99.90;;;;;;4988188;28;20777;-80
2023/04/02 10:42:40;;;;;;;2.63;0.70;;;7.00;99.90;;;;;;4999277;28;20441;-79
2023/04/02 10:45:39;;;;;;;3.00;0.77;;;7.30;99.90;;;;;;4984454;28;20869;-79
2023/04/02 10:48:19;;;;;;;5.43;1.50;;;7.20;99.90;;;;;;4993772;28;20504;-78
2023/04/02 10:50:52;;;;;;;3.85;1.50;;;7.30;99.90;;;;;;4990279;28;20430;-79
2023/04/02 10:53:24;;;;;;;2.28;0.93;;;7.30;99.90;;;;;;4973672;28;20555;-79
2023/04/02 10:56:02;;;;;;;3.40;0.80;;;7.10;99.90;;;;;;5002398;28;20439;-75
2023/04/02 10:58:30;;;;;;;2.25;1.10;;;7.30;99.90;;;;;;4986863;28;20435;-79
2023/04/02 11:01:12;;;;;;;4.57;1.00;;;7.60;99.90;;;;;;4971450;28;20797;-80
2023/04/02 11:03:45;;;;;;;5.95;1.38;;;7.60;99.90;;;;;;4991149;28;21083;-80
2023/04/02 11:06:19;;;;;;;2.83;0.80;;;7.80;99.90;;;;;;4987346;28;20434;-80
2023/04/02 11:08:49;;;;;;;5.03;0.77;;;7.50;99.90;;;;;;4991435;28;20430;-80
2023/04/02 11:11:29;;;;;;;5.47;0.77;;;7.80;99.90;;;;;;4995068;28;20476;-77
2023/04/02 11:14:17;;;;;;;5.72;1.23;;;7.60;99.90;;;;;;4984949;28;20929;-77
2023/04/02 11:16:43;;;;;;;3.20;0.85;;;7.90;99.90;;;;;;4993838;28;20448;-76
2023/04/02 11:19:15;;;;;;;6.53;2.15;;;8.00;99.90;;;;;;5006711;28;20432;-77
2023/04/02 11:21:46;;;;;;;2.80;1.08;;;7.80;99.90;;;;;;5004273;28;20528;-78
2023/04/02 11:24:37;;;;;;;3.70;1.13;;;7.80;99.90;;;;;;4998802;28;20427;-83
2023/04/02 11:27:11;;;;;;;2.65;1.15;;;8.00;99.90;;;;;;4982917;28;20430;-76
2023/04/02 11:29:51;;;;;;;3.35;0.70;;;7.80;99.90;;;;;;4985571;28;20436;-75
2023/04/02 11:32:28;;;;;;;3.10;0.90;;;7.90;99.90;;;;;;4982607;28;20422;-76
2023/04/02 11:34:53;;;;;;;2.45;1.10;;;7.70;99.90;;;;;;4983641;28;20433;-77
2023/04/02 11:37:34;;;;;;;2.20;0.73;;;7.90;99.90;;;;;;4989874;28;20454;-75
2023/04/02 11:40:00;;;;;;;3.50;0.65;;;7.90;99.90;;;;;;5001836;28;20439;-76
2023/04/02 11:42:30;;;;;;;2.88;0.63;;;8.10;99.90;;;;;;4996137;28;20441;-78
2023/04/02 11:45:27;;;;;;;1.85;0.80;;;8.00;99.90;;;;;;4977508;28;20445;-76
2023/04/02 11:48:07;;;;;;;3.13;0.93;;;8.30;99.90;;;;;;4965598;28;20438;-75
2023/04/02 11:50:36;;;;;;;3.65;0.90;;;7.90;99.90;;;;;;4988687;28;20453;-75
2023/04/02 11:53:03;;;;;;;3.90;0.70;;;8.20;99.90;;;;;;4978516;28;20461;-76
2023/04/02 11:55:33;;;;;;;3.25;0.65;;;8.20;99.90;;;;;;4984347;28;20429;-78
2023/04/02 11:58:37;;;;;;;3.17;0.60;;;8.30;99.90;;;;;;4987963;28;20925;-79
2023/04/02 12:01:10;;;;;;;2.40;0.83;;;8.20;99.90;;;;;;4970160;28;20973;-79
2023/04/02 12:04:08;;;;;;;1.80;0.60;;;8.10;99.90;;;;;;4988789;28;20462;-80
2023/04/02 12:06:45;;;;;;;2.75;0.85;;;8.10;99.90;;;;;;4989194;28;20421;-77
2023/04/02 12:09:22;;;;;;;2.55;0.85;;;8.30;99.90;;;;;;5003406;28;20783;-78
2023/04/02 12:11:50;;;;;;;3.22;0.60;;;8.50;99.90;;;;;;4987374;28;20434;-76
2023/04/02 12:14:53;;;;;;;1.92;0.65;;;8.40;99.90;;;;;;4988319;28;20422;-77
2023/04/02 12:17:27;;;;;;;3.57;1.10;;;8.60;99.90;;;;;;4989720;28;20450;-77
2023/04/02 12:19:57;;;;;;;1.80;0.80;;;8.20;99.90;;;;;;4989406;28;20418;-76
2023/04/02 12:22:29;;;;;;;2.58;0.52;;;8.50;99.90;;;;;;4989806;28;20450;-79
2023/04/02 12:25:03;;;;;;;2.45;0.88;;;8.40;99.90;;;;;;4988312;28;20785;-78
2023/04/02 12:27:29;;;;;;;2.65;0.82;;;8.50;99.90;;;;;;4988340;28;20419;-77
2023/04/02 12:30:18;;;;;;;1.50;0.45;;;8.40;99.90;;;;;;4988356;28;20912;-77
2023/04/02 12:32:45;;;;;;;1.38;0.50;;;8.80;99.90;;;;;;4988633;28;20414;-77
2023/04/02 12:35:31;;;;;;;1.67;0.63;;;8.90;99.90;;;;;;4987963;28;20430;-76
2023/04/02 12:37:57;;;;;;;3.80;0.60;;;8.60;99.90;;;;;;4987032;28;20426;-77
2023/04/02 12:40:24;;;;;;;2.00;0.88;;;8.70;99.90;;;;;;4989327;28;20417;-76
2023/04/02 12:42:50;;;;;;;5.17;1.30;;;8.70;99.90;;;;;;5003418;28;20526;-77
2023/04/02 12:45:29;;;;;;;2.63;0.80;;;8.70;99.90;;;;;;4987416;28;20921;-77
2023/04/02 12:47:56;;;;;;;2.20;0.60;;;8.80;99.90;;;;;;4986634;28;20431;-75
2023/04/02 12:50:22;;;;;;;2.97;0.90;;;8.70;99.90;;;;;;4986844;28;20414;-76
2023/04/02 12:52:52;;;;;;;2.67;0.77;;;8.60;99.90;;;;;;4987458;28;20501;-76
2023/04/02 12:55:20;;;;;;;2.25;0.70;;;8.60;99.90;;;;;;4988281;28;20433;-77
2023/04/02 12:57:48;;;;;;;3.92;0.65;;;8.50;99.90;;;;;;4986416;28;20560;-78
2023/04/02 13:00:23;;;;;;;2.28;0.90;;;8.60;99.90;;;;;;4988387;28;20407;-78
2023/04/02 13:03:00;;;;;;;2.65;0.68;;;9.10;99.90;;;;;;4987880;28;20430;-75
2023/04/02 13:05:33;;;;;;;5.00;1.27;;;8.90;99.90;;;;;;4988311;28;20718;-78
2023/04/02 13:07:59;;;;;;;2.80;0.82;;;8.70;99.90;;;;;;4990941;28;20460;-77
2023/04/02 13:10:26;;;;;;;2.70;0.52;;;8.80;99.90;;;;;;4999829;28;20469;-78
2023/04/02 13:13:00;;;;;;;2.05;0.82;;;8.90;99.90;;;;;;4987506;28;20430;-77
2023/04/02 13:15:32;;;;;;;2.03;0.60;;;9.10;99.90;;;;;;4987832;28;20450;-76
2023/04/02 13:18:12;;;;;;;2.45;0.93;;;9.30;99.90;;;;;;4988411;28;20414;-75
2023/04/02 13:20:53;;;;;;;3.95;1.40;;;8.90;99.90;;;;;;4989014;28;20407;-76
2023/04/02 13:23:36;;;;;;;2.55;0.88;;;9.10;99.90;;;;;;4988229;28;20434;-77
2023/04/02 13:26:17;;;;;;;3.90;0.90;;;8.90;99.90;;;;;;4969529;28;20432;-77
2023/04/02 13:29:08;;;;;;;8.73;5.22;;;8.80;99.90;;;;;;4986033;28;20426;-75
2023/04/02 13:31:33;;;;;;;3.78;1.55;;;8.90;99.90;;;;;;4988322;28;20419;-76
2023/04/02 13:34:00;;;;;;;5.07;1.77;;;8.80;99.90;;;;;;4987825;28;20437;-76
2023/04/02 13:36:28;;;;;;;3.47;1.10;;;8.80;99.90;;;;;;4987116;28;20418;-76
2023/04/02 13:38:54;;;;;;;1.92;0.55;;;8.80;99.90;;;;;;4999656;28;20423;-77